Terminal Aerodrome Forecast
Issued by NWS

Home | Current Version | Previous Version | Graphics & Text | Print | Product List | Glossary On
Versions: 1 2 3 4 5 6 7 8 9 10 11 12 13 14 15
000
FTUS43 KICT 261023 AAA
TAFSLN
TAF AMD
KSLN 261023Z 2610/2706 31005KT P6SM SKC
      TEMPO 2610/2612 2SM BR
     FM262200 26005KT P6SM SKC
     FM270000 21005KT P6SM SKC=

USA.gov is the U.S. government's official web portal to all federal, state and local government web resources and services.